createdAt,value
2019-01-28T00:00:05.569Z,2.30
2019-01-28T00:02:34.240Z,2.30
2019-01-28T00:05:02.687Z,2.30
2019-01-28T00:07:31.176Z,2.20
2019-01-28T00:09:59.626Z,2.20
2019-01-28T00:12:28.069Z,2.10
2019-01-28T00:14:56.497Z,2.10
2019-01-28T00:17:24.979Z,2.10
2019-01-28T00:19:53.434Z,2.00
2019-01-28T00:22:21.833Z,2.00
2019-01-28T00:24:50.288Z,2.00
2019-01-28T00:27:18.728Z,1.90
2019-01-28T00:29:47.148Z,1.90
2019-01-28T00:32:15.576Z,2.00
2019-01-28T00:34:43.987Z,2.00
2019-01-28T00:37:12.454Z,2.00
2019-01-28T00:39:40.873Z,1.90
2019-01-28T00:42:09.292Z,1.90
2019-01-28T00:44:37.745Z,1.90
2019-01-28T00:47:06.272Z,2.00
2019-01-28T00:49:34.659Z,2.00
2019-01-28T00:52:04.903Z,2.00
2019-01-28T00:54:33.355Z,2.00
2019-01-28T00:57:01.772Z,1.90
2019-01-28T00:59:30.240Z,2.00
2019-01-28T01:01:58.700Z,1.90
2019-01-28T01:04:27.077Z,1.90
2019-01-28T01:06:55.586Z,1.80
2019-01-28T01:09:24.006Z,1.80
2019-01-28T01:11:52.410Z,1.70
2019-01-28T01:14:20.846Z,1.70
2019-01-28T01:16:49.274Z,1.70
2019-01-28T01:19:17.738Z,1.60
2019-01-28T01:21:46.151Z,1.60
2019-01-28T01:24:14.607Z,1.60
2019-01-28T01:26:43.029Z,1.70
2019-01-28T01:29:11.469Z,1.70
2019-01-28T01:31:39.960Z,1.60
2019-01-28T01:34:08.444Z,1.70
2019-01-28T01:36:36.862Z,1.70
2019-01-28T01:39:07.446Z,1.60
2019-01-28T01:41:35.896Z,1.60
2019-01-28T01:44:04.622Z,1.60
2019-01-28T01:46:33.016Z,1.60
2019-01-28T01:49:02.387Z,1.60
2019-01-28T01:51:30.876Z,1.60
2019-01-28T01:53:59.302Z,1.50
2019-01-28T01:56:27.751Z,1.50
2019-01-28T01:58:56.197Z,1.40
2019-01-28T02:01:24.620Z,1.50
2019-01-28T02:03:53.087Z,1.40
2019-01-28T02:06:21.519Z,1.40
2019-01-28T02:08:49.968Z,1.40
2019-01-28T02:11:18.391Z,1.30
2019-01-28T02:13:46.857Z,1.30
2019-01-28T02:16:15.253Z,1.20
2019-01-28T02:18:43.741Z,1.20
2019-01-28T02:21:12.169Z,1.10
2019-01-28T02:23:40.643Z,1.00
2019-01-28T02:26:09.025Z,1.00
2019-01-28T02:28:37.489Z,0.90
2019-01-28T02:31:05.910Z,0.90
2019-01-28T02:33:34.377Z,0.90
2019-01-28T02:36:02.786Z,0.90
2019-01-28T02:38:31.233Z,0.90
2019-01-28T02:40:59.687Z,0.90
2019-01-28T02:43:28.114Z,0.80
2019-01-28T02:45:56.579Z,0.80
2019-01-28T02:48:25.034Z,0.80
2019-01-28T02:50:53.494Z,0.70
2019-01-28T02:53:21.984Z,0.70
2019-01-28T02:55:50.423Z,0.70
2019-01-28T02:58:18.825Z,0.60
2019-01-28T03:00:47.282Z,0.60
2019-01-28T03:03:15.731Z,0.60
2019-01-28T03:05:44.216Z,0.60
2019-01-28T03:08:12.632Z,0.60
2019-01-28T03:10:41.029Z,0.60
2019-01-28T03:13:09.479Z,0.60
2019-01-28T03:15:37.927Z,0.60
2019-01-28T03:18:06.437Z,0.50
2019-01-28T03:20:34.903Z,0.50
2019-01-28T03:23:03.475Z,0.50
2019-01-28T03:25:32.028Z,0.50
2019-01-28T03:28:02.243Z,0.50
2019-01-28T03:30:30.705Z,0.60
2019-01-28T03:32:59.164Z,0.60
2019-01-28T03:35:27.607Z,0.60
2019-01-28T03:37:56.038Z,0.60
2019-01-28T03:40:24.465Z,0.60
2019-01-28T03:42:53.098Z,0.60
2019-01-28T03:45:22.812Z,0.60
2019-01-28T03:47:51.340Z,0.60
2019-01-28T03:50:20.051Z,0.60
2019-01-28T03:52:48.625Z,0.60
2019-01-28T03:55:17.239Z,0.60
2019-01-28T03:57:45.717Z,0.70
2019-01-28T04:00:22.619Z,0.70
2019-01-28T04:02:51.081Z,0.70
2019-01-28T04:05:19.787Z,0.70
2019-01-28T04:07:48.203Z,0.70
2019-01-28T04:10:21.876Z,0.70
2019-01-28T04:12:50.583Z,0.70
2019-01-28T04:15:21.724Z,0.70
2019-01-28T04:17:50.296Z,0.70
2019-01-28T04:20:19.987Z,0.80
2019-01-28T04:22:48.420Z,0.80
2019-01-28T04:25:16.978Z,0.80
2019-01-28T04:27:45.608Z,0.80
2019-01-28T04:30:22.955Z,0.70
2019-01-28T04:32:51.408Z,0.80
2019-01-28T04:35:19.947Z,0.80
2019-01-28T04:37:48.405Z,0.80
2019-01-28T04:40:17.158Z,0.70
2019-01-28T04:42:45.963Z,0.80
2019-01-28T04:45:16.163Z,0.80
2019-01-28T04:47:44.609Z,0.80
2019-01-28T04:50:17.768Z,0.70
2019-01-28T04:52:46.262Z,0.80
2019-01-28T04:55:15.495Z,0.80
2019-01-28T04:57:44.149Z,0.80
2019-01-28T05:00:20.700Z,0.80
2019-01-28T05:02:49.215Z,0.70
2019-01-28T05:05:17.676Z,0.80
2019-01-28T05:07:46.261Z,0.80
2019-01-28T05:10:19.568Z,0.70
2019-01-28T05:12:48.010Z,0.70
2019-01-28T05:15:18.002Z,0.80
2019-01-28T05:17:46.586Z,0.80
2019-01-28T05:20:16.977Z,0.80
2019-01-28T05:22:45.625Z,0.80
2019-01-28T05:25:15.822Z,0.80
2019-01-28T05:27:44.231Z,0.80
2019-01-28T05:30:15.913Z,0.80
2019-01-28T05:32:44.371Z,0.80
2019-01-28T05:35:15.281Z,0.80
2019-01-28T05:37:43.702Z,0.80
2019-01-28T05:40:18.002Z,0.70
2019-01-28T05:42:46.404Z,0.80
2019-01-28T05:45:17.035Z,0.80
2019-01-28T05:47:45.468Z,0.80
2019-01-28T05:50:15.676Z,0.70
2019-01-28T05:52:44.085Z,0.80
2019-01-28T05:55:15.205Z,0.80
2019-01-28T05:57:43.700Z,0.80
2019-01-28T06:00:17.986Z,0.80
2019-01-28T06:02:46.485Z,0.80
2019-01-28T06:05:15.313Z,0.70
2019-01-28T06:07:43.793Z,0.70
2019-01-28T06:10:14.843Z,0.70
2019-01-28T06:12:43.479Z,0.70
2019-01-28T06:15:15.168Z,0.70
2019-01-28T06:17:43.566Z,0.70
2019-01-28T06:20:21.088Z,0.70
2019-01-28T06:22:49.548Z,0.70
2019-01-28T06:25:18.113Z,0.70
2019-01-28T06:27:46.716Z,0.70
2019-01-28T06:30:23.147Z,0.70
2019-01-28T06:32:51.922Z,0.70
2019-01-28T06:35:20.368Z,0.70
2019-01-28T06:37:48.866Z,0.70
2019-01-28T06:40:22.751Z,0.70
2019-01-28T06:42:51.186Z,0.70
2019-01-28T06:45:19.590Z,0.80
2019-01-28T06:47:48.342Z,0.80
2019-01-28T06:50:23.115Z,0.80
2019-01-28T06:52:51.642Z,0.80
2019-01-28T06:55:20.763Z,0.70
2019-01-28T06:57:49.385Z,0.70
2019-01-28T07:00:26.478Z,0.70
2019-01-28T07:02:54.952Z,0.70
2019-01-28T07:05:23.395Z,0.70
2019-01-28T07:07:51.807Z,0.80
2019-01-28T07:10:20.316Z,0.70
2019-01-28T07:12:48.809Z,0.70
2019-01-28T07:15:19.882Z,0.80
2019-01-28T07:17:54.584Z,0.80
2019-01-28T07:20:25.519Z,0.80
2019-01-28T07:22:54.074Z,0.80
2019-01-28T07:25:22.504Z,0.80
2019-01-28T07:27:50.925Z,0.80
2019-01-28T07:30:31.031Z,0.80
2019-01-28T07:32:59.532Z,0.70
2019-01-28T07:35:27.976Z,0.80
2019-01-28T07:37:56.417Z,0.70
2019-01-28T07:40:24.915Z,0.70
2019-01-28T07:42:53.447Z,0.70
2019-01-28T07:45:24.850Z,0.80
2019-01-28T07:47:53.384Z,0.80
2019-01-28T07:50:22.211Z,0.80
2019-01-28T07:52:50.706Z,0.80
2019-01-28T07:55:19.181Z,0.80
2019-01-28T07:57:47.615Z,0.70
2019-01-28T08:00:22.055Z,0.70
2019-01-28T08:02:50.486Z,0.70
2019-01-28T08:05:19.626Z,0.70
2019-01-28T08:07:48.173Z,0.70
2019-01-28T08:10:18.400Z,0.60
2019-01-28T08:12:47.001Z,0.70
2019-01-28T08:15:24.138Z,0.70
2019-01-28T08:17:52.590Z,0.70
2019-01-28T08:20:21.763Z,0.70
2019-01-28T08:22:50.237Z,0.80
2019-01-28T08:25:20.510Z,0.70
2019-01-28T08:27:49.654Z,0.80
2019-01-28T08:30:27.051Z,0.80
2019-01-28T08:32:55.584Z,0.80
2019-01-28T08:35:24.345Z,0.80
2019-01-28T08:37:52.783Z,0.90
2019-01-28T08:40:22.522Z,0.90
2019-01-28T08:42:51.072Z,0.90
2019-01-28T08:45:19.693Z,0.90
2019-01-28T08:47:48.103Z,0.90
2019-01-28T08:50:22.054Z,1.00
2019-01-28T08:52:50.605Z,1.00
2019-01-28T08:55:21.820Z,1.10
2019-01-28T08:57:50.497Z,1.00
2019-01-28T09:00:22.130Z,1.00
2019-01-28T09:02:50.638Z,1.00
2019-01-28T09:05:19.910Z,0.90
2019-01-28T09:07:48.462Z,1.00
2019-01-28T09:10:22.119Z,0.90
2019-01-28T09:12:50.530Z,0.90
2019-01-28T09:15:20.924Z,0.90
2019-01-28T09:17:49.467Z,1.00
2019-01-28T09:20:20.634Z,1.00
2019-01-28T09:22:49.104Z,1.10
2019-01-28T09:25:17.809Z,1.10
2019-01-28T09:27:46.355Z,1.10
2019-01-28T09:30:17.890Z,1.10
2019-01-28T09:32:46.293Z,1.10
2019-01-28T09:35:14.898Z,1.20
2019-01-28T09:37:43.361Z,1.30
2019-01-28T09:40:20.090Z,1.40
2019-01-28T09:42:48.582Z,1.40
2019-01-28T09:45:25.016Z,1.50
2019-01-28T09:47:53.445Z,1.60
2019-01-28T09:50:22.117Z,1.60
2019-01-28T09:52:52.101Z,1.60
2019-01-28T09:55:20.716Z,1.50
2019-01-28T09:57:49.174Z,1.50
2019-01-28T10:00:33.071Z,1.50
2019-01-28T10:03:02.664Z,1.40
2019-01-28T10:05:31.132Z,1.40
2019-01-28T10:07:59.596Z,1.30
2019-01-28T10:10:28.145Z,1.20
2019-01-28T10:12:56.664Z,1.20
2019-01-28T10:15:28.617Z,1.20
2019-01-28T10:17:56.698Z,1.20
2019-01-28T10:20:30.111Z,1.30
2019-01-28T10:22:58.518Z,1.30
2019-01-28T10:25:27.067Z,1.40
2019-01-28T10:27:55.737Z,1.40
2019-01-28T10:30:29.957Z,1.40
2019-01-28T10:32:58.411Z,1.50
2019-01-28T10:35:28.683Z,1.50
2019-01-28T10:37:57.356Z,1.40
2019-01-28T10:40:34.489Z,1.40
2019-01-28T10:43:03.083Z,1.30
2019-01-28T10:45:31.545Z,1.30
2019-01-28T10:48:01.314Z,1.40
2019-01-28T10:50:30.268Z,1.40
2019-01-28T10:52:58.765Z,1.50
2019-01-28T10:55:27.435Z,1.50
2019-01-28T10:57:56.530Z,1.50
2019-01-28T11:00:36.819Z,1.60
2019-01-28T11:03:06.985Z,1.80
2019-01-28T11:05:35.478Z,2.00
2019-01-28T11:08:05.626Z,2.20
2019-01-28T11:10:34.262Z,2.50
2019-01-28T11:13:02.784Z,2.60
2019-01-28T11:15:31.713Z,2.70
2019-01-28T11:18:03.168Z,2.70
2019-01-28T11:20:31.719Z,2.60
2019-01-28T11:23:01.323Z,2.50
2019-01-28T11:25:31.994Z,2.50
2019-01-28T11:28:00.676Z,2.60
2019-01-28T11:30:42.337Z,2.70
2019-01-28T11:33:11.229Z,2.90
2019-01-28T11:35:40.287Z,2.90
2019-01-28T11:38:08.892Z,3.00
2019-01-28T11:40:56.739Z,2.90
2019-01-28T11:43:44.608Z,2.90
2019-01-28T11:46:32.440Z,2.80
2019-01-28T11:49:20.382Z,2.80
2019-01-28T11:52:08.144Z,2.60
2019-01-28T11:54:55.921Z,2.50
2019-01-28T11:57:43.703Z,2.40
2019-01-28T12:00:52.440Z,2.20
2019-01-28T12:03:40.240Z,2.20
2019-01-28T12:06:28.064Z,2.10
2019-01-28T12:09:15.859Z,2.10
2019-01-28T12:12:03.658Z,2.10
2019-01-28T12:14:52.218Z,2.20
2019-01-28T12:17:39.944Z,2.30
2019-01-28T12:20:27.852Z,2.50
2019-01-28T12:23:15.567Z,2.60
2019-01-28T12:26:03.325Z,2.70
2019-01-28T12:28:51.077Z,2.50
2019-01-28T12:31:38.824Z,2.50
2019-01-28T12:34:07.273Z,2.40
2019-01-28T12:36:48.152Z,2.30
2019-01-28T12:39:29.734Z,2.30
2019-01-28T12:42:10.709Z,2.20
2019-01-28T12:44:51.167Z,2.00
2019-01-28T12:47:32.298Z,1.90
2019-01-28T12:50:13.364Z,1.80
2019-01-28T12:52:54.079Z,1.80
2019-01-28T12:55:34.717Z,1.70
2019-01-28T12:58:15.560Z,1.80
2019-01-28T13:00:57.773Z,2.00
2019-01-28T13:03:38.785Z,2.10
2019-01-28T13:06:19.456Z,2.20
2019-01-28T13:09:01.918Z,2.30
2019-01-28T13:11:42.190Z,2.10
2019-01-28T13:14:22.843Z,2.10
2019-01-28T13:17:03.479Z,2.10
2019-01-28T13:19:44.405Z,2.30
2019-01-28T13:22:25.245Z,2.50
2019-01-28T13:28:18.262Z,2.60
2019-01-28T13:30:58.845Z,2.60
2019-01-28T13:33:39.906Z,2.50
2019-01-28T13:36:20.101Z,2.50
2019-01-28T13:39:00.651Z,2.30
2019-01-28T13:41:41.306Z,2.10
2019-01-28T13:44:21.800Z,2.00
2019-01-28T13:47:02.775Z,1.90
2019-01-28T13:49:43.793Z,1.80
2019-01-28T13:52:24.705Z,1.90
2019-01-28T13:55:05.575Z,1.80
2019-01-28T13:57:46.191Z,1.80
2019-01-28T14:00:27.159Z,1.80
2019-01-28T14:03:08.096Z,1.70
2019-01-28T14:05:49.074Z,1.70
2019-01-28T14:08:29.802Z,1.60
2019-01-28T14:11:10.390Z,1.60
2019-01-28T14:13:51.346Z,1.50
2019-01-28T14:16:32.259Z,1.60
2019-01-28T14:19:13.210Z,1.60
2019-01-28T14:21:54.219Z,1.70
2019-01-28T14:24:34.973Z,1.70
2019-01-28T14:27:16.047Z,1.70
2019-01-28T14:29:56.914Z,1.70
2019-01-28T14:32:37.919Z,1.60
2019-01-28T14:35:18.467Z,1.50
2019-01-28T14:38:01.523Z,1.40
2019-01-28T14:40:42.221Z,1.40
2019-01-28T14:43:23.082Z,1.40
2019-01-28T14:46:04.183Z,1.30
2019-01-28T14:48:49.296Z,1.30
2019-01-28T14:51:27.991Z,1.20
2019-01-28T14:54:08.618Z,1.10
2019-01-28T14:56:49.363Z,1.00
2019-01-28T14:59:30.556Z,1.00
2019-01-28T15:02:11.213Z,1.00
2019-01-28T15:04:52.322Z,1.00
2019-01-28T15:07:32.915Z,1.00
2019-01-28T15:10:13.990Z,1.00
2019-01-28T15:12:55.052Z,0.90
2019-01-28T15:15:35.449Z,0.90
2019-01-28T15:18:16.475Z,1.00
2019-01-28T15:20:57.135Z,1.00
2019-01-28T15:23:38.196Z,1.00
2019-01-28T15:26:19.113Z,0.90
2019-01-28T15:29:00.968Z,0.90
2019-01-28T15:31:41.948Z,0.90
2019-01-28T15:34:22.517Z,0.80
2019-01-28T15:37:03.057Z,0.80
2019-01-28T15:39:43.747Z,0.70
2019-01-28T15:42:24.446Z,0.70
2019-01-28T15:45:11.213Z,0.70
2019-01-28T15:47:48.085Z,0.70
2019-01-28T15:50:28.967Z,0.70
2019-01-28T15:53:09.835Z,0.60
2019-01-28T15:55:50.612Z,0.60
2019-01-28T15:58:31.625Z,0.60
2019-01-28T16:01:12.421Z,0.60
2019-01-28T16:03:53.396Z,0.60
2019-01-28T16:06:34.270Z,0.60
2019-01-28T16:09:15.159Z,0.60
2019-01-28T16:11:55.757Z,0.60
2019-01-28T16:14:36.823Z,0.50
2019-01-28T16:17:17.221Z,0.50
2019-01-28T16:19:58.005Z,0.50
2019-01-28T16:22:39.041Z,0.40
2019-01-28T16:25:19.659Z,0.40
2019-01-28T16:28:00.762Z,0.40
2019-01-28T16:30:41.107Z,0.40
2019-01-28T16:33:21.815Z,0.50
2019-01-28T16:36:02.199Z,0.50
2019-01-28T16:41:56.814Z,0.50
2019-01-28T16:44:44.569Z,0.50
2019-01-28T16:47:32.372Z,0.50
2019-01-28T16:50:40.863Z,0.50
2019-01-28T16:53:28.716Z,0.50
2019-01-28T16:56:16.501Z,0.50
2019-01-28T16:59:04.326Z,0.50
2019-01-28T17:01:52.065Z,0.50
2019-01-28T17:04:39.890Z,0.50
2019-01-28T17:07:27.670Z,0.50
2019-01-28T17:10:15.585Z,0.50
2019-01-28T17:15:57.454Z,0.50
2019-01-28T17:21:19.364Z,0.50
2019-01-28T17:24:01.688Z,0.60
2019-01-28T17:26:42.029Z,0.50
2019-01-28T17:29:23.097Z,0.50
2019-01-28T17:32:04.226Z,0.50
2019-01-28T17:34:45.085Z,0.50
2019-01-28T17:37:25.758Z,0.50
2019-01-28T17:40:06.425Z,0.50
2019-01-28T17:42:46.665Z,0.60
2019-01-28T17:45:27.605Z,0.50
2019-01-28T17:48:08.509Z,0.50
2019-01-28T17:50:49.137Z,0.50
2019-01-28T17:53:29.847Z,0.50
2019-01-28T17:56:10.913Z,0.50
2019-01-28T17:58:39.351Z,0.60
2019-01-28T18:01:27.108Z,0.60
2019-01-28T18:04:14.907Z,0.50
2019-01-28T18:09:56.426Z,0.50
2019-01-28T18:12:44.286Z,0.50
2019-01-28T18:15:32.073Z,0.60
2019-01-28T18:18:19.850Z,0.60
2019-01-28T18:21:07.634Z,0.50
2019-01-28T18:23:55.411Z,0.50
2019-01-28T18:26:43.236Z,0.50
2019-01-28T18:29:30.997Z,0.50
2019-01-28T18:31:59.405Z,0.50
2019-01-28T18:34:47.172Z,0.50
2019-01-28T18:37:34.921Z,0.50
2019-01-28T18:40:15.419Z,0.50
2019-01-28T18:42:56.121Z,0.50
2019-01-28T18:45:36.897Z,0.50
2019-01-28T18:48:17.749Z,0.50
2019-01-28T18:50:59.746Z,0.50
2019-01-28T18:53:40.550Z,0.50
2019-01-28T18:56:21.216Z,0.50
2019-01-28T18:59:01.732Z,0.50
2019-01-28T19:01:45.826Z,0.50
2019-01-28T19:04:14.289Z,0.50
2019-01-28T19:06:44.334Z,0.50
2019-01-28T19:09:14.380Z,0.50
2019-01-28T19:11:44.463Z,0.50
2019-01-28T19:14:17.217Z,0.50
2019-01-28T19:16:56.175Z,0.50
2019-01-28T19:19:34.817Z,0.50
2019-01-28T19:22:04.770Z,0.50
2019-01-28T19:24:33.234Z,0.50
2019-01-28T19:27:01.650Z,0.50
2019-01-28T19:29:30.034Z,0.60
2019-01-28T19:31:58.515Z,0.60
2019-01-28T19:34:26.889Z,0.60
2019-01-28T19:36:55.361Z,0.60
2019-01-28T19:39:23.865Z,0.60
2019-01-28T19:41:52.298Z,0.60
2019-01-28T19:44:20.769Z,0.60
2019-01-28T19:46:49.259Z,0.60
2019-01-28T19:49:17.672Z,0.60
2019-01-28T19:51:46.220Z,0.60
2019-01-28T19:54:14.599Z,0.60
2019-01-28T19:56:43.067Z,0.60
2019-01-28T19:59:11.484Z,0.60
2019-01-28T20:01:39.897Z,0.60
2019-01-28T20:04:08.365Z,0.60
2019-01-28T20:06:36.893Z,0.60
2019-01-28T20:09:07.873Z,0.70
2019-01-28T20:11:36.377Z,0.70
2019-01-28T20:14:05.250Z,0.60
2019-01-28T20:16:33.764Z,0.60
2019-01-28T20:19:02.210Z,0.60
2019-01-28T20:21:30.653Z,0.60
2019-01-28T20:24:01.370Z,0.70
2019-01-28T20:26:29.856Z,0.70
2019-01-28T20:28:58.355Z,0.70
2019-01-28T20:31:26.749Z,0.70
2019-01-28T20:33:55.181Z,0.70
2019-01-28T20:36:23.680Z,0.70
2019-01-28T20:38:52.141Z,0.70
2019-01-28T20:41:20.637Z,0.70
2019-01-28T20:43:49.084Z,0.70
2019-01-28T20:46:17.503Z,0.70
2019-01-28T20:48:45.926Z,0.60
2019-01-28T20:51:14.362Z,0.60
2019-01-28T20:53:42.828Z,0.60
2019-01-28T20:56:11.266Z,0.60
2019-01-28T20:58:39.751Z,0.60
2019-01-28T21:01:08.229Z,0.60
2019-01-28T21:03:36.714Z,0.60
2019-01-28T21:06:06.691Z,0.60
2019-01-28T21:08:35.117Z,0.70
2019-01-28T21:11:03.673Z,0.70
2019-01-28T21:13:32.221Z,0.70
2019-01-28T21:16:00.627Z,0.70
2019-01-28T21:18:29.103Z,0.70
2019-01-28T21:20:57.530Z,0.70
2019-01-28T21:23:25.972Z,0.60
2019-01-28T21:25:54.442Z,0.70
2019-01-28T21:28:22.921Z,0.70
2019-01-28T21:30:51.360Z,0.70
2019-01-28T21:33:19.778Z,0.60
2019-01-28T21:35:49.892Z,0.60
2019-01-28T21:38:19.997Z,0.60
2019-01-28T21:40:48.433Z,0.50
2019-01-28T21:43:16.946Z,0.50
2019-01-28T21:45:45.517Z,0.50
2019-01-28T21:48:13.953Z,0.40
2019-01-28T21:50:42.385Z,0.40
2019-01-28T21:53:10.872Z,0.40
2019-01-28T21:55:39.314Z,0.40
2019-01-28T21:58:07.818Z,0.30
2019-01-28T22:00:36.249Z,0.30
2019-01-28T22:03:05.085Z,0.20
2019-01-28T22:05:33.519Z,0.20
2019-01-28T22:08:02.057Z,0.10
2019-01-28T22:10:30.482Z,0.20
2019-01-28T22:12:59.010Z,0.10
2019-01-28T22:15:27.457Z,0.00
2019-01-28T22:17:55.891Z,0.00
2019-01-28T22:20:24.309Z,0.00
2019-01-28T22:22:52.740Z,0.00
2019-01-28T22:25:21.177Z,0.00
2019-01-28T22:27:57.188Z,0.00
2019-01-28T22:30:24.470Z,0.00
2019-01-28T22:32:53.008Z,0.00
2019-01-28T22:35:21.474Z,0.00
2019-01-28T22:37:49.961Z,0.00
2019-01-28T22:40:20.098Z,0.00
2019-01-28T22:42:48.514Z,0.00
2019-01-28T22:45:18.447Z,0.00
2019-01-28T22:47:46.884Z,0.10
2019-01-28T22:50:17.049Z,0.10
2019-01-28T22:52:45.696Z,0.00
2019-01-28T22:55:16.673Z,0.00
2019-01-28T22:57:45.083Z,0.10
2019-01-28T23:00:24.329Z,0.00
2019-01-28T23:02:52.826Z,0.00
2019-01-28T23:05:21.216Z,0.00
2019-01-28T23:07:49.674Z,0.00
2019-01-28T23:10:18.109Z,0.00
2019-01-28T23:12:46.492Z,0.00
2019-01-28T23:15:14.941Z,0.00
2019-01-28T23:17:43.406Z,0.00
2019-01-28T23:20:11.833Z,-0.10
2019-01-28T23:22:40.285Z,0.00
2019-01-28T23:25:08.827Z,-0.10
2019-01-28T23:27:37.230Z,-0.10
2019-01-28T23:30:08.773Z,-0.10
2019-01-28T23:32:37.172Z,-0.20
2019-01-28T23:35:08.501Z,-0.20
2019-01-28T23:37:36.954Z,-0.20
2019-01-28T23:40:07.639Z,-0.20
2019-01-28T23:42:36.367Z,-0.20
2019-01-28T23:45:10.129Z,-0.30
2019-01-28T23:47:38.541Z,-0.30
2019-01-28T23:50:09.468Z,-0.30
2019-01-28T23:52:37.891Z,-0.40
2019-01-28T23:55:07.709Z,-0.40
2019-01-28T23:57:36.110Z,-0.40
